Time;durP1;ratioP1;P1;durP2;ratioP2;P2;SDS_P1;SDS_P2;PMS_P1;PMS_P2;Temp;Humidity;BMP_temperature;BMP_pressure;BME280_temperature;BME280_humidity;BME280_pressure;Samples;Min_cycle;Max_cycle;Signal;HPM_P1;HPM_P2
2022/08/09 00:00:56;;;;;;;6.18;2.75;;;;;;;18.54;75.84;102591.28;5090701;28;20371;-54
2022/08/09 00:03:24;;;;;;;7.13;2.60;;;;;;;18.54;75.78;102591.28;5082205;28;20081;-56
2022/08/09 00:06:12;;;;;;;7.35;2.80;;;;;;;18.50;75.93;102581.91;5082840;28;20043;-56
2022/08/09 00:08:49;;;;;;;6.53;2.70;;;;;;;18.47;75.86;102590.72;5081603;28;20469;-56
2022/08/09 00:11:20;;;;;;;11.98;3.08;;;;;;;18.41;76.23;102583.59;5078727;28;20109;-57
2022/08/09 00:13:52;;;;;;;7.22;2.70;;;;;;;18.29;76.93;102581.94;5075899;28;20059;-55
2022/08/09 00:16:22;;;;;;;6.57;2.63;;;;;;;18.28;77.08;102585.81;5089547;28;20046;-55
2022/08/09 00:19:04;;;;;;;8.05;2.80;;;;;;;18.31;76.99;102590.75;5075940;28;20047;-54
2022/08/09 00:21:40;;;;;;;6.97;2.85;;;;;;;18.30;76.77;102578.06;5089403;28;20048;-56
2022/08/09 00:24:24;;;;;;;5.13;2.70;;;;;;;18.34;76.82;102578.34;5081079;28;20046;-56
2022/08/09 00:26:55;;;;;;;5.53;2.50;;;;;;;18.31;76.99;102574.19;5084229;28;20037;-53
2022/08/09 00:29:25;;;;;;;6.00;2.83;;;;;;;18.37;76.61;102582.47;5074364;28;20414;-52
2022/08/09 00:32:13;;;;;;;7.00;2.80;;;;;;;18.35;76.67;102579.16;5078056;28;20105;-53
2022/08/09 00:34:52;;;;;;;4.85;2.65;;;;;;;18.28;76.81;102574.75;5074938;28;20048;-53
2022/08/09 00:37:20;;;;;;;5.22;2.65;;;;;;;18.27;77.07;102572.28;5077822;28;20036;-52
2022/08/09 00:39:47;;;;;;;5.57;2.70;;;;;;;18.23;77.24;102572.00;5075927;28;20048;-52
2022/08/09 00:42:35;;;;;;;5.07;2.58;;;;;;;18.20;77.12;102580.00;5082342;28;20051;-50
2022/08/09 00:45:23;;;;;;;4.80;2.70;;;;;;;18.17;77.31;102572.28;5081017;28;20036;-52
2022/08/09 00:47:52;;;;;;;3.72;2.42;;;;;;;18.16;77.42;102574.22;5081239;28;20066;-52
2022/08/09 00:50:22;;;;;;;5.13;2.42;;;;;;;18.17;77.17;102575.03;5074233;28;20045;-51
2022/08/09 00:52:51;;;;;;;7.47;2.50;;;;;;;18.13;77.41;102588.53;5084409;28;20512;-52
2022/08/09 00:55:20;;;;;;;4.88;2.58;;;;;;;18.16;77.17;102579.75;5075023;28;20406;-51
2022/08/09 00:58:08;;;;;;;6.45;2.85;;;;;;;18.16;76.95;102576.13;5079423;28;20043;-53
2022/08/09 01:00:42;;;;;;;6.20;2.70;;;;;;;18.13;77.12;102585.78;5073621;28;20479;-51
2022/08/09 01:03:38;;;;;;;6.30;2.40;;;;;;;18.14;76.90;102579.19;5089068;28;20102;-52
2022/08/09 01:06:37;;;;;;;7.20;2.65;;;;;;;18.11;77.05;102590.75;5082959;28;20051;-52
2022/08/09 01:09:55;;;;;;;5.93;2.60;;;;;;;18.06;77.34;102588.00;5072339;28;20388;-51
2022/08/09 01:12:38;;;;;;;4.03;2.20;;;;;;;18.07;77.26;102584.97;5079416;28;20041;-52
2022/08/09 01:15:08;;;;;;;5.10;2.38;;;;;;;18.06;77.10;102593.50;5082184;28;20040;-50
2022/08/09 01:17:47;;;;;;;5.47;2.63;;;;;;;17.96;77.44;102599.03;5081674;28;20044;-53
2022/08/09 01:20:55;;;;;;;5.85;2.90;;;;;;;17.95;77.65;102597.38;5073672;28;20039;-53
2022/08/09 01:23:38;;;;;;;4.47;2.50;;;;;;;17.96;77.46;102597.09;5085433;28;20517;-53
2022/08/09 01:26:49;;;;;;;5.57;2.70;;;;;;;17.93;77.61;102594.06;5078137;28;20398;-51
2022/08/09 01:29:46;;;;;;;7.18;2.67;;;;;;;17.83;77.90;102592.94;5073244;28;20037;-52
2022/08/09 01:32:30;;;;;;;5.53;2.58;;;;;;;17.77;78.10;102585.72;5078201;28;20040;-52
2022/08/09 01:35:04;;;;;;;7.32;2.40;;;;;;;17.78;78.35;102587.41;5074372;28;20032;-52
2022/08/09 01:37:54;;;;;;;4.78;2.35;;;;;;;17.77;78.51;102591.25;5080205;28;20043;-52
2022/08/09 01:40:41;;;;;;;5.95;2.45;;;;;;;17.86;77.66;102586.06;5073297;28;20041;-55
2022/08/09 01:43:10;;;;;;;7.13;2.70;;;;;;;17.86;77.47;102588.81;5078156;28;20052;-54
2022/08/09 01:45:39;;;;;;;6.90;2.58;;;;;;;17.76;77.99;102575.81;5074716;28;20028;-53
2022/08/09 01:48:15;;;;;;;10.95;2.60;;;;;;;17.73;78.33;102584.66;5073540;28;20036;-53
2022/08/09 01:50:47;;;;;;;6.82;2.70;;;;;;;17.66;78.85;102589.59;5071805;28;20060;-55
2022/08/09 01:53:22;;;;;;;7.00;3.05;;;;;;;17.60;79.58;102587.91;5076152;28;20043;-55
2022/08/09 01:55:56;;;;;;;6.78;2.80;;;;;;;17.64;79.41;102586.28;5079120;28;20036;-53
2022/08/09 01:58:27;;;;;;;7.75;2.92;;;;;;;17.59;79.39;102583.50;5072297;28;20043;-53
2022/08/09 02:00:56;;;;;;;9.00;2.65;;;;;;;17.51;80.27;102587.63;5081184;28;20059;-57
2022/08/09 02:03:24;;;;;;;7.80;2.63;;;;;;;17.53;80.03;102590.09;5071888;28;20048;-52
2022/08/09 02:05:53;;;;;;;5.38;2.55;;;;;;;17.58;80.08;102592.88;5075365;28;20040;-51
2022/08/09 02:08:37;;;;;;;4.50;2.47;;;;;;;17.59;79.93;102594.53;5087012;28;20507;-51
2022/08/09 02:11:28;;;;;;;5.53;2.80;;;;;;;17.50;80.24;102596.16;5072607;28;20032;-50
2022/08/09 02:14:11;;;;;;;6.22;3.00;;;;;;;17.45;80.69;102600.56;5072131;28;20513;-50
2022/08/09 02:16:54;;;;;;;6.88;2.90;;;;;;;17.42;80.88;102592.84;5075958;28;20539;-56
2022/08/09 02:19:42;;;;;;;4.82;2.58;;;;;;;17.34;81.40;102593.38;5082372;28;20039;-50
2022/08/09 02:22:22;;;;;;;8.80;3.05;;;;;;;17.42;81.38;102597.53;5071780;28;20049;-51
2022/08/09 02:25:07;;;;;;;8.32;3.20;;;;;;;17.38;81.31;102596.41;5072576;28;20047;-54
2022/08/09 02:27:37;;;;;;;5.30;2.53;;;;;;;17.25;82.38;102597.75;5086542;28;20048;-53
2022/08/09 02:30:27;;;;;;;6.55;3.10;;;;;;;17.24;82.64;102601.56;5074033;28;20043;-56
2022/08/09 02:32:56;;;;;;;6.13;3.10;;;;;;;17.29;82.10;102596.09;5086029;28;20123;-51
2022/08/09 02:35:27;;;;;;;6.75;3.15;;;;;;;17.28;82.59;102586.19;5071451;28;20049;-50
2022/08/09 02:38:17;;;;;;;6.10;3.30;;;;;;;17.25;82.34;102589.47;5079246;28;20028;-50
2022/08/09 02:41:01;;;;;;;4.70;3.05;;;;;;;17.21;82.92;102593.88;5088574;28;20040;-57
2022/08/09 02:43:31;;;;;;;6.47;3.10;;;;;;;17.19;82.92;102591.38;5076468;28;20044;-54
2022/08/09 02:46:18;;;;;;;6.85;3.15;;;;;;;17.13;83.52;102586.94;5090861;28;20048;-55
2022/08/09 02:48:48;;;;;;;7.55;2.95;;;;;;;17.02;84.01;102588.81;5083495;28;20040;-51
2022/08/09 02:51:18;;;;;;;5.93;2.80;;;;;;;16.95;84.47;102587.41;5079777;28;20036;-51
2022/08/09 02:53:50;;;;;;;6.47;3.30;;;;;;;17.07;83.95;102589.94;5076447;28;20052;-53
2022/08/09 02:56:31;;;;;;;7.88;3.28;;;;;;;17.03;84.33;102586.91;5081746;28;20518;-54
2022/08/09 02:59:03;;;;;;;6.95;3.15;;;;;;;16.94;84.67;102583.00;5086620;28;20047;-55
2022/08/09 03:01:32;;;;;;;6.25;3.17;;;;;;;16.90;85.22;102582.69;5089198;28;20097;-52
2022/08/09 03:04:20;;;;;;;7.55;3.17;;;;;;;16.88;84.97;102590.41;5075212;28;20036;-51
2022/08/09 03:06:56;;;;;;;11.10;3.65;;;;;;;16.89;85.00;102586.56;5074938;28;20037;-58
2022/08/09 03:09:42;;;;;;;6.88;3.40;;;;;;;16.95;84.89;102590.97;5086326;28;20032;-50
2022/08/09 03:12:22;;;;;;;6.70;3.40;;;;;;;16.93;84.97;102579.44;5087662;28;20033;-51
2022/08/09 03:14:50;;;;;;;7.15;3.13;;;;;;;16.98;84.80;102582.22;5076182;28;20048;-51
2022/08/09 03:17:20;;;;;;;7.32;3.25;;;;;;;16.98;84.52;102578.59;5088504;28;20397;-52
2022/08/09 03:19:59;;;;;;;6.78;3.20;;;;;;;16.79;85.84;102576.31;5085576;28;20032;-53
2022/08/09 03:22:39;;;;;;;8.52;3.10;;;;;;;16.82;86.28;102574.97;5082733;28;20040;-51
2022/08/09 03:25:12;;;;;;;5.13;3.03;;;;;;;16.86;85.53;102573.34;5080458;28;20059;-51
2022/08/09 03:28:01;;;;;;;6.97;3.30;;;;;;;16.93;85.19;102575.81;5078031;28;20047;-52
2022/08/09 03:30:31;;;;;;;7.78;3.28;;;;;;;16.95;85.22;102573.63;5085583;28;20036;-52
2022/08/09 03:33:07;;;;;;;7.75;3.08;;;;;;;16.96;84.84;102576.13;5074196;28;20051;-50
2022/08/09 03:35:47;;;;;;;5.72;3.20;;;;;;;16.93;84.81;102576.69;5085728;28;20056;-49
2022/08/09 03:38:37;;;;;;;7.55;3.45;;;;;;;16.86;85.29;102586.25;5075425;28;20052;-54
2022/08/09 03:41:11;;;;;;;7.35;3.53;;;;;;;16.83;85.83;102587.63;5090608;28;20406;-53
2022/08/09 03:43:43;;;;;;;8.48;3.40;;;;;;;16.91;85.36;102584.38;5074210;28;20048;-52
2022/08/09 03:46:31;;;;;;;5.90;3.20;;;;;;;16.91;85.32;102587.13;5075083;28;20042;-53
2022/08/09 03:49:02;;;;;;;8.82;3.97;;;;;;;16.88;85.22;102587.66;5082747;28;20036;-52
2022/08/09 03:51:35;;;;;;;8.38;3.55;;;;;;;16.77;85.93;102585.91;5087323;28;20047;-52
2022/08/09 03:54:25;;;;;;;8.77;3.45;;;;;;;16.53;87.25;102589.06;5083214;28;20110;-54
2022/08/09 03:57:11;;;;;;;8.02;3.55;;;;;;;16.50;87.76;102586.84;5074338;28;20037;-52
2022/08/09 03:59:51;;;;;;;11.10;4.13;;;;;;;16.55;87.95;102589.63;5079334;28;20050;-54
2022/08/09 04:02:28;;;;;;;7.43;3.65;;;;;;;16.58;87.77;102591.84;5088190;28;20052;-51
2022/08/09 04:04:59;;;;;;;6.07;3.35;;;;;;;16.65;87.04;102585.31;5088168;28;20048;-55
2022/08/09 04:07:33;;;;;;;9.70;3.83;;;;;;;16.67;86.86;102588.59;5073721;28;20044;-51
2022/08/09 04:10:21;;;;;;;7.45;3.63;;;;;;;16.48;88.31;102586.28;5073700;28;20046;-54
2022/08/09 04:12:59;;;;;;;9.68;3.58;;;;;;;16.38;89.21;102587.03;5082188;28;20063;-55
2022/08/09 04:15:28;;;;;;;7.25;3.50;;;;;;;16.39;89.25;102588.69;5073439;28;20070;-55
2022/08/09 04:18:16;;;;;;;9.88;4.00;;;;;;;16.50;88.19;102588.75;5081039;28;20041;-57
2022/08/09 04:20:48;;;;;;;7.10;3.70;;;;;;;16.49;88.23;102593.44;5071741;28;20033;-56
2022/08/09 04:23:16;;;;;;;10.82;4.30;;;;;;;16.52;88.28;102584.66;5079371;28;20043;-54
2022/08/09 04:25:45;;;;;;;8.23;4.28;;;;;;;16.46;88.46;102595.91;5083337;28;20048;-55
2022/08/09 04:28:23;;;;;;;9.77;4.32;;;;;;;16.48;88.88;102593.72;5086922;28;20055;-56
2022/08/09 04:31:01;;;;;;;9.70;4.03;;;;;;;16.47;88.18;102603.06;5084002;28;20411;-56
2022/08/09 04:33:39;;;;;;;8.65;4.30;;;;;;;16.48;88.50;102599.22;5085347;28;20040;-53
2022/08/09 04:36:27;;;;;;;7.22;4.40;;;;;;;16.47;88.38;102605.81;5075414;28;20170;-52
2022/08/09 04:38:59;;;;;;;7.15;3.85;;;;;;;16.42;89.11;102603.00;5079669;28;20037;-53
2022/08/09 04:41:28;;;;;;;9.02;3.72;;;;;;;16.38;89.42;102605.47;5074127;28;20036;-51
2022/08/09 04:44:04;;;;;;;9.57;4.60;;;;;;;16.28;89.81;102613.63;5073291;28;20037;-54
2022/08/09 04:46:41;;;;;;;10.20;4.00;;;;;;;16.25;90.59;102608.66;5073917;28;20040;-49
2022/08/09 04:49:32;;;;;;;8.30;4.60;;;;;;;16.33;89.91;102613.66;5074770;28;20048;-50
2022/08/09 04:52:24;;;;;;;9.35;4.72;;;;;;;16.34;89.68;102612.59;5074173;28;20040;-52
2022/08/09 04:54:55;;;;;;;8.20;4.70;;;;;;;16.29;90.66;102612.56;5082239;28;20041;-50
2022/08/09 04:57:23;;;;;;;7.80;4.35;;;;;;;16.34;90.87;102618.09;5065903;28;20040;-52
2022/08/09 04:59:53;;;;;;;10.73;5.20;;;;;;;16.41;89.95;102613.19;5078747;28;20052;-54
2022/08/09 05:02:22;;;;;;;9.27;4.50;;;;;;;16.38;90.26;102619.25;5090957;28;20044;-55
2022/08/09 05:04:50;;;;;;;9.75;4.70;;;;;;;16.43;90.31;102612.91;5072879;28;20384;-50
2022/08/09 05:07:22;;;;;;;8.32;4.88;;;;;;;16.30;91.07;102616.94;5072346;28;20445;-49
2022/08/09 05:09:50;;;;;;;11.30;4.53;;;;;;;16.33;91.45;102621.91;5075390;28;20036;-50
2022/08/09 05:12:18;;;;;;;12.48;5.43;;;;;;;16.34;91.17;102618.09;5077062;28;20048;-50
2022/08/09 05:14:49;;;;;;;10.70;5.18;;;;;;;16.38;91.25;102624.75;5076065;28;20041;-52
2022/08/09 05:17:17;;;;;;;9.43;4.90;;;;;;;16.40;91.69;102628.03;5082465;28;20041;-53
2022/08/09 05:20:06;;;;;;;8.07;4.95;;;;;;;16.40;91.62;102634.38;5074100;28;20609;-57
2022/08/09 05:22:34;;;;;;;10.02;4.75;;;;;;;16.41;91.84;102626.97;5072159;28;20117;-55
2022/08/09 05:25:23;;;;;;;9.40;4.95;;;;;;;16.48;91.75;102630.31;5075231;28;20044;-55
2022/08/09 05:27:52;;;;;;;8.38;5.07;;;;;;;16.52;91.35;102627.84;5084142;28;20048;-51
2022/08/09 05:30:22;;;;;;;8.70;5.10;;;;;;;16.51;91.98;102640.78;5087599;28;20051;-57
2022/08/09 05:32:50;;;;;;;8.98;5.53;;;;;;;16.55;92.04;102636.41;5073219;28;20037;-54
2022/08/09 05:35:20;;;;;;;9.45;4.95;;;;;;;16.54;92.41;102637.50;5072279;28;20511;-51
2022/08/09 05:37:49;;;;;;;12.02;6.10;;;;;;;16.49;92.87;102637.47;5072833;28;20040;-55
2022/08/09 05:40:17;;;;;;;8.32;5.05;;;;;;;16.53;92.94;102638.59;5084863;28;20040;-54
2022/08/09 05:42:46;;;;;;;12.02;6.25;;;;;;;16.56;92.71;102638.06;5073285;28;20045;-54
2022/08/09 05:45:14;;;;;;;10.77;6.03;;;;;;;16.55;93.56;102636.41;5073276;28;20029;-50
2022/08/09 05:47:42;;;;;;;10.52;5.78;;;;;;;16.59;93.31;102637.53;5071921;28;20101;-49
2022/08/09 05:50:24;;;;;;;11.32;6.00;;;;;;;16.57;93.48;102638.88;5077787;28;20089;-49
2022/08/09 05:53:12;;;;;;;13.25;6.50;;;;;;;16.60;93.91;102636.44;5081866;28;20434;-52
2022/08/09 05:55:59;;;;;;;10.80;5.90;;;;;;;16.65;93.74;102641.16;5090125;28;20048;-53
2022/08/09 05:58:28;;;;;;;13.52;5.97;;;;;;;16.65;93.95;102645.84;5090567;28;20039;-54
2022/08/09 06:00:56;;;;;;;10.13;6.43;;;;;;;16.67;94.08;102643.63;5081565;28;20483;-52
2022/08/09 06:03:24;;;;;;;11.15;5.82;;;;;;;16.65;94.31;102645.84;5071846;28;20049;-52
2022/08/09 06:06:11;;;;;;;10.20;5.80;;;;;;;16.69;94.48;102649.72;5080860;28;20394;-54
2022/08/09 06:08:38;;;;;;;13.07;6.40;;;;;;;16.70;94.75;102649.47;5074597;28;20036;-50
2022/08/09 06:11:08;;;;;;;12.88;6.43;;;;;;;16.74;94.20;102650.59;5080218;28;20048;-54
2022/08/09 06:13:44;;;;;;;10.90;6.20;;;;;;;16.80;94.63;102659.75;4370389;28;10000831;-53
2022/08/09 06:16:14;;;;;;;11.73;6.00;;;;;;;16.80;94.64;102660.56;5069147;28;20518;-56
2022/08/09 06:18:43;;;;;;;11.85;6.50;;;;;;;16.86;94.67;102669.72;5080954;28;20410;-55
2022/08/09 06:21:11;;;;;;;10.82;6.10;;;;;;;16.86;94.35;102663.34;5074111;28;20047;-54
2022/08/09 06:23:42;;;;;;;11.52;6.20;;;;;;;16.90;94.41;102662.56;5087461;28;20040;-57
2022/08/09 06:26:28;;;;;;;8.47;4.43;;;;;;;17.00;93.51;102657.13;5073483;28;20045;-55
2022/08/09 06:28:58;;;;;;;9.82;5.80;;;;;;;17.03;93.63;102656.59;5073429;28;20283;-53
2022/08/09 06:31:35;;;;;;;10.38;5.70;;;;;;;17.06;94.66;102657.97;5081232;28;20039;-53
2022/08/09 06:34:23;;;;;;;9.38;5.78;;;;;;;17.13;94.14;102663.25;5089972;28;20413;-52
2022/08/09 06:36:53;;;;;;;11.57;5.55;;;;;;;17.20;93.21;102664.66;5080519;28;20055;-52
2022/08/09 06:39:27;;;;;;;10.98;5.50;;;;;;;17.26;92.05;102665.50;5078803;28;20044;-54
2022/08/09 06:42:16;;;;;;;9.82;5.25;;;;;;;17.36;91.88;102665.53;5091398;28;20490;-55
2022/08/09 06:44:47;;;;;;;8.48;4.57;;;;;;;17.41;91.48;102668.34;5073543;28;20048;-53
2022/08/09 06:47:21;;;;;;;9.52;5.53;;;;;;;17.45;91.20;102671.38;5080942;28;20048;-55
2022/08/09 06:49:52;;;;;;;8.88;4.68;;;;;;;17.45;91.11;102661.19;5084192;28;20036;-54
2022/08/09 06:52:44;;;;;;;12.38;4.82;;;;;;;17.51;91.06;102663.94;5079348;28;20039;-53
2022/08/09 06:55:18;;;;;;;11.07;5.13;;;;;;;17.53;90.63;102672.78;5087277;28;20387;-51
2022/08/09 06:57:50;;;;;;;9.80;5.07;;;;;;;17.55;90.12;102671.41;5073141;28;20045;-54
2022/08/09 07:00:32;;;;;;;10.98;4.43;;;;;;;17.59;89.37;102675.28;5086912;28;20064;-52
2022/08/09 07:03:21;;;;;;;10.57;4.63;;;;;;;17.66;89.49;102686.91;5075432;28;20040;-56
2022/08/09 07:05:57;;;;;;;10.93;4.47;;;;;;;17.72;88.65;102681.41;5090857;28;20055;-52
2022/08/09 07:08:34;;;;;;;13.60;5.45;;;;;;;17.77;89.21;102693.25;5090647;28;20294;-50
2022/08/09 07:11:06;;;;;;;8.05;4.88;;;;;;;17.81;88.06;102688.91;5091144;28;20036;-53
2022/08/09 07:13:34;;;;;;;9.43;4.75;;;;;;;17.87;87.66;102690.59;5088810;28;20044;-49
2022/08/09 07:16:22;;;;;;;10.25;5.05;;;;;;;17.93;87.27;102687.84;5086488;28;20484;-50
2022/08/09 07:19:10;;;;;;;12.85;4.80;;;;;;;17.96;87.21;102687.28;5082131;28;20033;-49
2022/08/09 07:21:45;;;;;;;11.20;5.23;;;;;;;17.96;87.36;102681.78;5081867;28;20036;-51
2022/08/09 07:24:25;;;;;;;9.15;4.70;;;;;;;17.99;87.45;102686.72;5071360;28;20044;-56
2022/08/09 07:27:00;;;;;;;9.88;4.80;;;;;;;18.01;86.96;102679.03;5075519;28;20081;-52
2022/08/09 07:29:28;;;;;;;8.07;4.28;;;;;;;18.12;86.57;102688.16;5088402;28;20058;-52
2022/08/09 07:32:04;;;;;;;10.93;4.65;;;;;;;18.16;86.05;102686.50;5084401;28;20032;-51
2022/08/09 07:34:33;;;;;;;9.55;4.53;;;;;;;18.21;86.13;102684.59;5088995;28;20044;-51
2022/08/09 07:37:01;;;;;;;9.63;4.38;;;;;;;18.23;85.47;102682.38;5090367;28;20050;-51
2022/08/09 07:39:30;;;;;;;20.20;6.60;;;;;;;18.26;85.50;102686.53;5087789;28;20036;-51
2022/08/09 07:42:10;;;;;;;13.63;5.25;;;;;;;18.30;84.91;102680.19;5082319;28;20050;-53
2022/08/09 07:44:38;;;;;;;8.65;4.22;;;;;;;18.31;84.40;102684.59;5091084;28;20047;-57
2022/08/09 07:47:23;;;;;;;6.75;4.25;;;;;;;18.39;83.04;102685.13;5073995;28;20037;-58
2022/08/09 07:49:51;;;;;;;10.85;4.70;;;;;;;18.42;83.41;102690.09;5086894;28;20047;-56
2022/08/09 07:52:37;;;;;;;10.07;4.70;;;;;;;18.49;82.60;102697.00;5087729;28;20044;-52
2022/08/09 07:55:05;;;;;;;10.48;4.38;;;;;;;18.53;81.83;102691.78;5089228;28;20047;-53
2022/08/09 07:57:36;;;;;;;9.05;4.50;;;;;;;18.59;81.23;102704.47;5085504;28;20375;-58
2022/08/09 08:00:18;;;;;;;7.07;3.78;;;;;;;18.62;81.21;102695.63;5074725;28;20045;-55
2022/08/09 08:03:03;;;;;;;8.75;3.90;;;;;;;18.64;81.37;102696.19;5079055;28;20040;-54
2022/08/09 08:05:35;;;;;;;10.00;4.10;;;;;;;18.65;80.71;102695.06;5073782;28;20049;-54
2022/08/09 08:08:23;;;;;;;8.20;3.80;;;;;;;18.69;80.55;102690.66;5085254;28;20044;-56
2022/08/09 08:11:10;;;;;;;7.50;3.78;;;;;;;18.78;80.33;102693.72;5074843;28;20040;-57
2022/08/09 08:13:58;;;;;;;9.23;4.32;;;;;;;18.87;80.56;102699.50;5081041;28;20420;-56
2022/08/09 08:16:26;;;;;;;10.60;4.50;;;;;;;18.90;79.78;102696.19;5084186;28;20058;-57
2022/08/09 08:18:59;;;;;;;9.02;4.22;;;;;;;18.99;79.70;102697.28;5075134;28;20040;-57
2022/08/09 08:21:31;;;;;;;8.65;4.32;;;;;;;19.06;79.01;102695.06;5074618;28;20044;-57
2022/08/09 08:23:59;;;;;;;8.52;3.50;;;;;;;19.10;78.83;102695.34;5075077;28;20037;-57
2022/08/09 08:26:38;;;;;;;10.70;3.63;;;;;;;19.20;77.94;102677.91;5083661;28;20037;-57
2022/08/09 08:29:26;;;;;;;9.35;3.70;;;;;;;19.21;77.41;102688.66;5079547;28;20482;-54
2022/08/09 08:32:05;;;;;;;12.00;3.70;;;;;;;19.22;78.20;102686.72;5085789;28;20454;-55
2022/08/09 08:34:39;;;;;;;10.15;3.85;;;;;;;19.24;77.06;102682.59;5074088;28;20402;-52
2022/08/09 08:37:07;;;;;;;8.18;3.47;;;;;;;19.29;76.20;102681.72;5074666;28;20109;-56
2022/08/09 08:39:45;;;;;;;7.05;3.33;;;;;;;19.35;76.26;102686.94;5078501;28;20393;-56
2022/08/09 08:42:13;;;;;;;7.32;3.45;;;;;;;19.36;75.53;102685.84;5082268;28;20059;-52
2022/08/09 08:44:43;;;;;;;10.05;3.40;;;;;;;19.42;75.37;102681.13;5087858;28;20093;-55
2022/08/09 08:47:16;;;;;;;10.13;4.05;;;;;;;19.51;74.49;102690.50;5082541;28;20092;-53
2022/08/09 08:49:44;;;;;;;10.98;3.75;;;;;;;19.54;74.29;102687.16;5077319;28;20051;-54
2022/08/09 08:52:20;;;;;;;9.60;3.42;;;;;;;19.58;74.86;102690.19;5073069;28;20041;-55
2022/08/09 08:55:08;;;;;;;6.20;3.08;;;;;;;19.61;73.88;102700.69;5073696;28;20499;-54
2022/08/09 08:57:36;;;;;;;6.95;2.90;;;;;;;19.70;73.15;102701.78;5081164;28;20056;-54
2022/08/09 09:00:08;;;;;;;6.85;2.92;;;;;;;19.78;71.53;102697.59;5086370;28;20052;-56
2022/08/09 09:02:58;;;;;;;4.50;2.67;;;;;;;19.91;71.11;102705.25;5081817;28;20044;-55
2022/08/09 09:05:39;;;;;;;6.03;2.80;;;;;;;19.96;71.72;102701.63;5073522;28;20048;-55
2022/08/09 09:08:33;;;;;;;6.40;2.90;;;;;;;19.93;72.06;102703.03;5066220;28;20055;-56
2022/08/09 09:11:08;;;;;;;6.60;2.47;;;;;;;20.02;71.28;102699.66;5077569;28;20073;-53
2022/08/09 09:13:48;;;;;;;7.45;2.85;;;;;;;20.05;70.21;102704.63;5077121;28;20045;-54
2022/08/09 09:16:27;;;;;;;9.02;2.75;;;;;;;20.10;69.92;102702.63;5073232;28;20047;-55
2022/08/09 09:18:59;;;;;;;6.70;2.60;;;;;;;20.14;69.08;102709.25;5086130;28;20048;-56
2022/08/09 09:22:07;;;;;;;6.65;2.60;;;;;;;20.10;69.62;102702.63;5084137;28;20051;-53
2022/08/09 09:24:52;;;;;;;4.00;2.20;;;;;;;20.22;68.46;102707.81;5068549;28;20503;-54
2022/08/09 09:27:40;;;;;;;4.05;2.28;;;;;;;20.25;68.05;102700.88;5088063;28;20505;-54
2022/08/09 09:30:28;;;;;;;6.65;1.98;;;;;;;20.33;65.80;102701.09;5080446;28;20040;-56
2022/08/09 09:33:14;;;;;;;4.93;2.17;;;;;;;20.42;64.67;102716.00;5084984;28;20088;-53
2022/08/09 09:35:59;;;;;;;6.95;2.30;;;;;;;20.43;65.08;102705.72;5086273;28;20078;-53
2022/08/09 09:38:47;;;;;;;4.35;2.45;;;;;;;20.44;66.09;102693.53;5071954;28;20445;-52
2022/08/09 09:41:27;;;;;;;4.80;2.03;;;;;;;20.47;65.92;102697.66;5073240;28;20620;-53
2022/08/09 09:44:06;;;;;;;4.68;2.00;;;;;;;20.60;63.84;102699.81;5075256;28;20051;-52
2022/08/09 09:46:42;;;;;;;5.40;1.70;;;;;;;20.59;63.78;102704.53;5081320;28;20048;-54
2022/08/09 09:49:20;;;;;;;5.63;2.17;;;;;;;20.64;62.89;102695.34;5072918;28;20388;-52
2022/08/09 09:52:09;;;;;;;5.50;2.13;;;;;;;20.66;62.43;102698.66;5072631;28;20441;-54
2022/08/09 09:55:05;;;;;;;5.57;1.92;;;;;;;20.67;62.50;102697.53;5075360;28;20047;-54
2022/08/09 09:58:01;;;;;;;3.60;2.00;;;;;;;20.84;62.71;102706.22;5082220;28;20040;-53
2022/08/09 10:00:51;;;;;;;3.70;1.77;;;;;;;20.83;60.92;102703.78;5081971;28;20499;-56
2022/08/09 10:03:40;;;;;;;3.92;2.03;;;;;;;20.87;62.26;102698.44;5074216;28;20044;-55
2022/08/09 10:06:10;;;;;;;3.22;1.70;;;;;;;20.96;61.00;102694.75;5089863;28;20028;-53
2022/08/09 10:08:43;;;;;;;6.35;1.98;;;;;;;20.99;61.00;102696.09;5086856;28;20033;-55
2022/08/09 10:11:26;;;;;;;5.55;1.55;;;;;;;21.02;59.81;102690.81;5073036;28;20036;-52
2022/08/09 10:14:30;;;;;;;3.15;1.65;;;;;;;21.02;59.43;102695.50;5081934;28;20066;-53
2022/08/09 10:17:12;;;;;;;4.60;1.63;;;;;;;21.08;59.31;102693.53;5084671;28;20044;-51
2022/08/09 10:20:03;;;;;;;4.75;1.80;;;;;;;21.05;59.41;102697.72;5072204;28;20040;-54
2022/08/09 10:22:33;;;;;;;6.97;2.13;;;;;;;21.17;58.57;102700.91;5086397;28;20044;-56
2022/08/09 10:25:08;;;;;;;4.20;2.10;;;;;;;21.25;59.35;102699.44;5082918;28;20048;-54
2022/08/09 10:27:44;;;;;;;3.63;1.58;;;;;;;21.35;57.47;102690.97;5084643;28;20048;-56
2022/08/09 10:30:25;;;;;;;3.95;1.70;;;;;;;21.38;57.11;102695.13;5072634;28;20040;-55
2022/08/09 10:33:14;;;;;;;5.20;2.03;;;;;;;21.37;56.83;102685.97;5071507;28;20406;-51
2022/08/09 10:36:07;;;;;;;4.88;1.88;;;;;;;21.45;57.28;102692.84;5079786;28;20032;-55
2022/08/09 10:38:39;;;;;;;;;;;;;;;21.48;57.38;102692.25;5079210;28;20053;-52
2022/08/09 10:41:26;;;;;;;4.43;1.65;;;;;;;21.51;56.56;102691.66;5092045;28;20442;-52
2022/08/09 10:43:55;;;;;;;4.20;2.00;;;;;;;21.52;56.40;102679.44;5073823;28;20085;-56
2022/08/09 10:46:59;;;;;;;4.10;1.80;;;;;;;21.51;55.87;102679.75;5081834;28;20042;-52
2022/08/09 10:50:18;;;;;;;7.18;2.80;;;;;;;21.57;56.04;102678.53;5091069;28;20040;-54
2022/08/09 10:53:05;;;;;;;6.00;2.40;;;;;;;21.53;55.63;102666.38;5077150;28;20105;-55
2022/08/09 10:55:37;;;;;;;8.10;3.63;;;;;;;21.59;54.90;102671.56;5071260;28;20082;-54
2022/08/09 10:58:32;;;;;;;6.50;3.42;;;;;;;21.65;55.42;102664.84;5085278;28;20035;-52
2022/08/09 11:01:03;;;;;;;5.53;2.00;;;;;;;21.68;55.36;102655.91;5078568;28;20123;-55
2022/08/09 11:04:13;;;;;;;5.00;2.40;;;;;;;21.82;55.31;102663.50;5058993;28;20043;-56
2022/08/09 11:06:58;;;;;;;3.95;2.20;;;;;;;21.85;53.74;102665.69;5079126;28;20244;-53
2022/08/09 11:09:42;;;;;;;5.20;2.85;;;;;;;21.89;53.31;102663.97;5085824;28;20055;-52
2022/08/09 11:12:23;;;;;;;6.18;3.33;;;;;;;21.86;54.06;102672.88;4378617;28;10000371;-52
2022/08/09 11:15:19;;;;;;;9.60;4.05;;;;;;;21.86;54.09;102679.25;5077620;28;20051;-56
2022/08/09 11:17:55;;;;;;;6.35;2.53;;;;;;;21.90;54.06;102676.69;5084505;28;20052;-52
2022/08/09 11:20:43;;;;;;;5.88;2.03;;;;;;;21.99;53.64;102669.34;5075151;28;20051;-52
2022/08/09 11:23:12;;;;;;;5.47;2.30;;;;;;;22.02;53.03;102665.16;5072332;28;20388;-55
2022/08/09 11:25:42;;;;;;;6.95;2.60;;;;;;;22.00;53.26;102670.16;5073366;28;20066;-53
2022/08/09 11:28:38;;;;;;;6.03;2.85;;;;;;;22.12;53.23;102657.47;5087381;28;20666;-55
2022/08/09 11:31:44;;;;;;;13.48;4.55;;;;;;;22.17;53.68;102655.75;5071048;28;20048;-51
2022/08/09 11:34:39;;;;;;;4.13;1.77;;;;;;;22.09;53.44;102657.25;5072309;28;20047;-51
2022/08/09 11:37:08;;;;;;;3.72;1.60;;;;;;;22.08;52.70;102642.56;5073083;28;20051;-50
2022/08/09 11:40:01;;;;;;;3.95;1.60;;;;;;;22.17;52.03;102647.41;5083053;28;20039;-53
2022/08/09 11:42:39;;;;;;;4.88;1.92;;;;;;;22.30;51.30;102647.50;5070907;28;20049;-54
2022/08/09 11:45:30;;;;;;;3.67;1.50;;;;;;;22.28;52.53;102643.38;5072158;28;20040;-49
2022/08/09 11:48:16;;;;;;;2.30;1.38;;;;;;;22.32;51.79;102648.03;5076478;28;20048;-54
2022/08/09 11:51:05;;;;;;;2.40;1.40;;;;;;;22.32;52.04;102631.38;5083308;28;20040;-52
2022/08/09 11:54:17;;;;;;;6.30;1.70;;;;;;;22.33;51.32;102630.22;5072082;28;20045;-52
2022/08/09 11:57:36;;;;;;;9.70;1.58;;;;;;;22.34;50.68;102647.72;5072095;28;20044;-52
2022/08/09 12:00:26;;;;;;;4.68;1.48;;;;;;;22.36;50.71;102630.75;5074630;28;20048;-51
2022/08/09 12:02:56;;;;;;;3.78;1.35;;;;;;;22.42;50.58;102630.38;5075210;28;20048;-53
2022/08/09 12:05:32;;;;;;;4.88;1.60;;;;;;;22.53;49.38;102633.78;5070691;28;20495;-50
2022/08/09 12:08:08;;;;;;;5.40;1.55;;;;;;;22.53;49.81;102633.78;5074757;28;20041;-51
2022/08/09 12:10:47;;;;;;;4.00;1.60;;;;;;;22.52;50.41;102624.63;5080347;28;20506;-52
2022/08/09 12:13:33;;;;;;;;;;;;;;;22.49;50.86;102625.25;5080073;28;20055;-50
2022/08/09 12:16:27;;;;;;;3.08;1.60;;;;;;;22.51;48.37;102625.75;5083162;28;19942;-54
2022/08/09 12:19:07;;;;;;;1.58;1.25;;;;;;;22.50;49.28;102624.09;5084440;28;20040;-51